createdAt,value
2019-03-13T00:03:36.787Z,8.30
2019-03-13T00:08:39.583Z,8.33
2019-03-13T00:13:42.412Z,8.34
2019-03-13T00:18:45.180Z,8.32
2019-03-13T00:23:47.913Z,8.07
2019-03-13T00:28:50.697Z,8.02
2019-03-13T00:33:53.441Z,7.99
2019-03-13T00:38:56.180Z,8.08
2019-03-13T00:43:58.905Z,8.05
2019-03-13T00:49:01.655Z,8.01
2019-03-13T00:54:04.378Z,8.00
2019-03-13T00:59:07.161Z,8.10
2019-03-13T01:04:29.199Z,8.17
2019-03-13T01:09:31.918Z,8.09
2019-03-13T01:14:34.666Z,8.07
2019-03-13T01:19:37.445Z,8.17
2019-03-13T01:24:40.168Z,8.24
2019-03-13T01:29:42.916Z,8.30
2019-03-13T01:34:56.224Z,8.24
2019-03-13T01:39:58.969Z,8.29
2019-03-13T01:45:01.742Z,8.17
2019-03-13T01:50:04.808Z,8.22
2019-03-13T01:55:07.762Z,8.30
2019-03-13T02:00:11.903Z,8.35
2019-03-13T02:05:14.735Z,8.28
2019-03-13T02:10:17.465Z,8.18
2019-03-13T02:15:20.492Z,8.07
2019-03-13T02:20:23.340Z,7.96
2019-03-13T02:25:26.052Z,7.89
2019-03-13T02:30:30.765Z,7.80
2019-03-13T02:35:33.500Z,7.64
2019-03-13T02:40:36.236Z,7.81
2019-03-13T02:45:38.995Z,7.92
2019-03-13T02:50:41.726Z,7.74
2019-03-13T02:55:44.458Z,7.85
2019-03-13T03:01:05.511Z,8.06
2019-03-13T03:06:08.202Z,8.18
2019-03-13T03:11:10.915Z,8.19
2019-03-13T03:16:13.597Z,8.21
2019-03-13T03:21:16.463Z,8.22
2019-03-13T03:26:19.234Z,8.24
2019-03-13T03:31:21.921Z,8.22
2019-03-13T03:36:24.598Z,8.32
2019-03-13T03:41:27.955Z,8.20
2019-03-13T03:46:30.643Z,8.27
2019-03-13T03:51:33.354Z,8.28
2019-03-13T03:56:36.045Z,8.18
2019-03-13T04:01:38.749Z,8.25
2019-03-13T04:06:41.891Z,8.29
2019-03-13T04:11:44.713Z,8.33
2019-03-13T04:16:47.406Z,8.33
2019-03-13T04:21:50.093Z,8.27
2019-03-13T04:26:52.811Z,8.32
2019-03-13T04:31:55.518Z,8.38
2019-03-13T04:36:58.219Z,8.22
2019-03-13T04:42:00.928Z,8.27
2019-03-13T04:47:03.635Z,8.38
2019-03-13T04:52:06.336Z,8.50
2019-03-13T04:57:09.028Z,8.54
2019-03-13T05:02:11.738Z,8.59
2019-03-13T05:07:14.452Z,8.60
2019-03-13T05:12:17.175Z,8.62
2019-03-13T05:17:19.875Z,8.55
2019-03-13T05:22:22.605Z,8.57
2019-03-13T05:27:25.312Z,8.65
2019-03-13T05:32:27.999Z,8.69
2019-03-13T05:37:30.788Z,8.75
2019-03-13T05:42:33.533Z,8.74
2019-03-13T05:47:36.248Z,8.88
2019-03-13T05:52:38.954Z,8.89
2019-03-13T05:57:42.128Z,8.84
2019-03-13T06:02:47.751Z,8.85
2019-03-13T06:07:50.403Z,8.89
2019-03-13T06:12:53.236Z,9.02
2019-03-13T06:17:55.964Z,9.02
2019-03-13T06:22:58.659Z,8.92
2019-03-13T06:28:01.370Z,8.94
2019-03-13T06:33:04.099Z,9.01
2019-03-13T06:38:06.783Z,9.08
2019-03-13T06:43:09.481Z,9.14
2019-03-13T06:48:12.176Z,9.24
2019-03-13T06:53:14.868Z,9.25
2019-03-13T06:58:21.959Z,9.23
2019-03-13T07:03:36.067Z,9.25
2019-03-13T07:09:10.082Z,9.48
2019-03-13T07:14:47.591Z,9.50
2019-03-13T07:20:18.543Z,9.54
2019-03-13T07:25:43.700Z,9.60
2019-03-13T07:31:11.612Z,9.65
2019-03-13T07:36:25.059Z,9.80
2019-03-13T07:41:50.247Z,9.88
2019-03-13T07:47:12.583Z,9.91
2019-03-13T07:52:33.623Z,9.70
2019-03-13T07:57:45.651Z,9.86
2019-03-13T08:02:53.561Z,9.79
2019-03-13T08:08:09.576Z,10.22
2019-03-13T08:13:29.191Z,10.34
2019-03-13T08:18:49.073Z,10.37
2019-03-13T08:24:14.128Z,10.46
2019-03-13T08:29:40.230Z,10.31
2019-03-13T08:34:58.290Z,10.23
2019-03-13T08:40:18.715Z,10.49
2019-03-13T08:45:46.769Z,10.68
2019-03-13T08:50:57.803Z,10.70
2019-03-13T08:56:08.383Z,10.63
2019-03-13T09:01:33.389Z,10.61
2019-03-13T09:06:52.664Z,10.51
2019-03-13T09:12:16.051Z,10.42
2019-03-13T09:17:36.816Z,10.37
2019-03-13T09:22:48.587Z,10.28
2019-03-13T09:28:09.399Z,10.23
2019-03-13T09:33:21.319Z,10.11
2019-03-13T09:38:29.281Z,9.95
2019-03-13T09:43:59.835Z,10.05
2019-03-13T09:49:39.822Z,10.08
2019-03-13T09:54:49.814Z,10.03
2019-03-13T10:00:10.767Z,10.04
2019-03-13T10:05:20.687Z,10.34
2019-03-13T10:10:45.541Z,10.52
2019-03-13T10:15:59.817Z,10.58
2019-03-13T10:21:23.013Z,10.82
2019-03-13T10:26:48.108Z,10.78
2019-03-13T10:31:56.926Z,10.58
2019-03-13T10:37:19.274Z,10.56
2019-03-13T10:42:40.490Z,10.91
2019-03-13T10:48:20.698Z,11.10
2019-03-13T10:53:44.701Z,11.30
2019-03-13T10:59:00.172Z,11.54
2019-03-13T11:04:10.763Z,11.35
2019-03-13T11:09:31.864Z,11.24
2019-03-13T11:14:57.003Z,10.96
2019-03-13T11:20:21.930Z,10.53
2019-03-13T11:25:30.981Z,10.37
2019-03-13T11:30:42.606Z,10.32
2019-03-13T11:36:02.612Z,10.31
2019-03-13T11:41:23.810Z,10.27
2019-03-13T11:46:54.977Z,10.49
2019-03-13T11:52:23.251Z,10.31
2019-03-13T11:57:51.236Z,10.53
2019-03-13T12:03:11.980Z,10.65
2019-03-13T12:08:32.316Z,10.70
2019-03-13T12:13:44.918Z,10.64
2019-03-13T12:18:56.940Z,10.55
2019-03-13T12:24:09.411Z,10.62
2019-03-13T12:29:28.535Z,10.38
2019-03-13T12:34:49.987Z,10.52
2019-03-13T12:40:12.343Z,10.51
2019-03-13T12:45:29.289Z,10.65
2019-03-13T12:50:37.908Z,10.75
2019-03-13T12:55:59.137Z,10.72
2019-03-13T13:01:09.732Z,10.43
2019-03-13T13:06:34.655Z,10.07
2019-03-13T13:11:55.786Z,10.06
2019-03-13T13:17:15.345Z,10.04
2019-03-13T13:22:18.082Z,9.84
2019-03-13T13:27:20.782Z,10.00
2019-03-13T13:32:23.492Z,10.26
2019-03-13T13:37:26.208Z,10.26
2019-03-13T13:42:28.923Z,10.06
2019-03-13T13:47:31.603Z,9.92
2019-03-13T13:52:34.324Z,9.74
2019-03-13T13:57:37.040Z,9.63
2019-03-13T14:02:39.802Z,9.63
2019-03-13T14:07:42.498Z,9.46
2019-03-13T14:12:45.219Z,9.39
2019-03-13T14:17:47.943Z,9.19
2019-03-13T14:22:50.663Z,9.00
2019-03-13T14:27:53.369Z,8.97
2019-03-13T14:32:56.081Z,8.82
2019-03-13T14:37:58.776Z,8.93
2019-03-13T14:43:01.489Z,9.04
2019-03-13T14:48:04.179Z,9.21
2019-03-13T14:53:06.896Z,9.34
2019-03-13T14:58:09.642Z,9.31
2019-03-13T15:03:12.388Z,9.13
2019-03-13T15:08:15.081Z,9.14
2019-03-13T15:13:17.779Z,9.32
2019-03-13T15:18:20.502Z,9.20
2019-03-13T15:23:23.225Z,9.29
2019-03-13T15:28:25.938Z,9.32
2019-03-13T15:33:28.644Z,9.42
2019-03-13T15:38:31.369Z,9.77
2019-03-13T15:43:34.096Z,10.13
2019-03-13T15:48:36.798Z,10.03
2019-03-13T15:53:39.488Z,9.72
2019-03-13T15:58:42.184Z,9.50
2019-03-13T16:03:48.781Z,9.48
2019-03-13T16:08:51.575Z,9.48
2019-03-13T16:13:54.291Z,9.48
2019-03-13T16:18:57.010Z,9.44
2019-03-13T16:23:59.704Z,9.45
2019-03-13T16:29:02.425Z,9.36
2019-03-13T16:34:05.141Z,9.18
2019-03-13T16:39:07.984Z,8.98
2019-03-13T16:44:10.679Z,9.00
2019-03-13T16:49:13.376Z,9.11
2019-03-13T16:54:16.079Z,9.12
2019-03-13T16:59:18.782Z,9.01
2019-03-13T17:04:21.630Z,9.06
2019-03-13T17:09:25.388Z,9.02
2019-03-13T17:14:28.208Z,9.11
2019-03-13T17:19:31.808Z,9.17
2019-03-13T17:24:39.172Z,9.10
2019-03-13T17:29:42.385Z,9.24
2019-03-13T17:34:46.978Z,9.21
2019-03-13T17:39:51.788Z,9.10
2019-03-13T17:44:54.884Z,9.09
2019-03-13T17:49:58.098Z,9.08
2019-03-13T17:55:00.851Z,8.99
2019-03-13T18:00:05.388Z,9.04
2019-03-13T18:05:08.328Z,9.06
2019-03-13T18:10:13.625Z,9.08
2019-03-13T18:15:17.152Z,9.06
2019-03-13T18:20:19.876Z,8.99
2019-03-13T18:25:22.786Z,9.01
2019-03-13T18:30:25.587Z,8.98
2019-03-13T18:35:28.313Z,9.00
2019-03-13T18:40:31.022Z,8.98
2019-03-13T18:45:33.872Z,8.97
2019-03-13T18:50:36.583Z,8.88
2019-03-13T18:55:39.518Z,8.93
2019-03-13T19:00:42.272Z,9.01
2019-03-13T19:05:45.169Z,9.08
2019-03-13T19:10:47.895Z,9.14
2019-03-13T19:15:50.736Z,9.26
2019-03-13T19:20:54.157Z,9.15
2019-03-13T19:25:57.174Z,9.24
2019-03-13T19:30:59.866Z,9.26
2019-03-13T19:36:02.563Z,9.37
2019-03-13T19:41:08.466Z,9.40
2019-03-13T19:46:10.080Z,9.43
2019-03-13T19:56:28.704Z,9.17
2019-03-13T20:01:32.769Z,9.60
2019-03-13T20:06:42.225Z,9.74
2019-03-13T20:11:40.116Z,9.70
2019-03-13T20:16:42.815Z,9.63
2019-03-13T20:21:45.504Z,9.67
2019-03-13T20:26:48.218Z,9.68
2019-03-13T20:31:51.041Z,9.72
2019-03-13T20:36:53.820Z,9.80
2019-03-13T20:41:56.522Z,9.61
2019-03-13T20:46:59.225Z,9.44
2019-03-13T20:52:01.936Z,9.27
2019-03-13T20:57:04.664Z,9.31
2019-03-13T21:02:07.388Z,9.28
2019-03-13T21:07:10.099Z,9.24
2019-03-13T21:12:12.788Z,9.21
2019-03-13T21:17:15.506Z,9.18
2019-03-13T21:22:18.219Z,9.15
2019-03-13T21:27:20.922Z,9.06
2019-03-13T21:32:23.649Z,9.00
2019-03-13T21:37:26.382Z,8.92
2019-03-13T21:42:29.126Z,8.85
2019-03-13T21:47:31.857Z,8.86
2019-03-13T21:52:34.596Z,8.79
2019-03-13T21:57:37.308Z,8.87
2019-03-13T22:02:40.097Z,8.96
2019-03-13T22:07:43.070Z,9.08
2019-03-13T22:12:45.771Z,9.15
2019-03-13T22:17:48.575Z,9.26
2019-03-13T22:22:51.278Z,9.31
2019-03-13T22:27:53.970Z,9.34
2019-03-13T22:32:56.722Z,9.33
2019-03-13T22:37:59.428Z,9.31
2019-03-13T22:43:02.144Z,9.33
2019-03-13T22:48:04.846Z,9.32
2019-03-13T22:53:07.584Z,9.41
2019-03-13T22:58:10.284Z,9.49
2019-03-13T23:03:13.077Z,9.45
2019-03-13T23:08:17.251Z,9.35
2019-03-13T23:13:20.116Z,9.42
2019-03-13T23:18:22.964Z,9.43
2019-03-13T23:23:25.672Z,9.32
2019-03-13T23:28:28.336Z,9.43
2019-03-13T23:33:31.047Z,9.41
2019-03-13T23:38:33.762Z,9.18
2019-03-13T23:43:36.487Z,9.24
2019-03-13T23:48:39.257Z,9.27
2019-03-13T23:53:42.002Z,9.12
2019-03-13T23:58:44.729Z,9.14
